Time;durP1;ratioP1;P1;durP2;ratioP2;P2;SDS_P1;SDS_P2;PMS_P1;PMS_P2;Temp;Humidity;BMP_temperature;BMP_pressure;BME280_temperature;BME280_humidity;BME280_pressure;Samples;Min_cycle;Max_cycle;Signal;HPM_P1;HPM_P2
2021/03/22 00:01:15;;;;;;;14.32;11.27;;;6.20;91.90;;;;;;5062465;28;20024;-72
2021/03/22 00:03:41;;;;;;;14.95;12.48;;;6.20;91.80;;;;;;5061320;28;20070;-72
2021/03/22 00:06:07;;;;;;;12.57;11.10;;;6.10;92.20;;;;;;5061723;28;20025;-72
2021/03/22 00:08:33;;;;;;;15.13;12.32;;;6.10;92.20;;;;;;5064209;28;20035;-72
2021/03/22 00:10:59;;;;;;;12.18;10.88;;;6.10;92.50;;;;;;5064282;28;20024;-72
2021/03/22 00:13:26;;;;;;;18.45;11.73;;;6.10;92.50;;;;;;5063947;28;20031;-72
2021/03/22 00:16:03;;;;;;;16.95;10.07;;;6.10;92.50;;;;;;5064187;28;20020;-72
2021/03/22 00:18:31;;;;;;;12.93;11.00;;;6.10;92.60;;;;;;5056412;28;20012;-72
2021/03/22 00:20:57;;;;;;;11.55;9.95;;;6.00;92.80;;;;;;5064333;28;20135;-72
2021/03/22 00:23:23;;;;;;;13.90;11.20;;;6.00;93.00;;;;;;5061071;28;20124;-72
2021/03/22 00:25:49;;;;;;;12.57;10.60;;;6.00;93.00;;;;;;5060950;28;20511;-72
2021/03/22 00:28:17;;;;;;;11.40;10.27;;;6.00;92.90;;;;;;5062008;28;20469;-72
2021/03/22 00:30:45;;;;;;;12.55;11.25;;;6.00;93.00;;;;;;5063954;28;20477;-72
2021/03/22 00:33:12;;;;;;;14.82;11.95;;;5.90;93.30;;;;;;5062964;28;20027;-72
2021/03/22 00:35:38;;;;;;;14.02;12.27;;;5.90;93.80;;;;;;5062585;28;20026;-72
2021/03/22 00:38:05;;;;;;;14.43;11.30;;;5.90;93.80;;;;;;5060348;28;20036;-72
2021/03/22 00:40:33;;;;;;;14.73;11.48;;;5.90;93.40;;;;;;5058474;28;20074;-72
2021/03/22 00:42:58;;;;;;;16.55;12.65;;;5.90;93.60;;;;;;5064109;28;20142;-72
2021/03/22 00:45:25;;;;;;;14.77;11.60;;;5.90;93.80;;;;;;5061317;28;20475;-72
2021/03/22 00:47:51;;;;;;;17.25;12.45;;;5.80;93.70;;;;;;5060595;28;20029;-72
2021/03/22 00:50:27;;;;;;;13.90;12.32;;;5.90;93.60;;;;;;5059291;28;20144;-72
2021/03/22 00:52:53;;;;;;;14.02;11.38;;;5.90;93.20;;;;;;5063556;28;20115;-72
2021/03/22 00:55:19;;;;;;;15.02;12.63;;;5.90;93.00;;;;;;5062410;28;20135;-72
2021/03/22 00:57:45;;;;;;;16.42;10.82;;;5.90;93.10;;;;;;5060425;28;20013;-72
2021/03/22 01:00:23;;;;;;;14.68;11.85;;;5.80;92.90;;;;;;5060453;28;20021;-72
2021/03/22 01:02:49;;;;;;;15.27;10.93;;;5.80;93.50;;;;;;5067073;28;20029;-72
2021/03/22 01:05:16;;;;;;;14.93;12.30;;;5.80;92.90;;;;;;5060448;28;20032;-72
2021/03/22 01:07:41;;;;;;;18.55;12.50;;;5.80;92.90;;;;;;5063418;28;20027;-72
2021/03/22 01:10:11;;;;;;;13.43;11.02;;;5.80;93.20;;;;;;5063788;28;20025;-72
2021/03/22 01:12:36;;;;;;;12.93;11.03;;;5.80;93.30;;;;;;5060251;28;20021;-72
2021/03/22 01:15:05;;;;;;;14.15;12.60;;;5.80;92.90;;;;;;5060137;28;20322;-72
2021/03/22 01:17:31;;;;;;;12.43;10.65;;;5.80;93.30;;;;;;5062157;28;20100;-72
2021/03/22 01:19:57;;;;;;;13.32;10.45;;;5.80;93.20;;;;;;5063428;28;20107;-72
2021/03/22 01:22:22;;;;;;;15.38;10.95;;;5.90;93.00;;;;;;5062168;28;20025;-72
2021/03/22 01:24:48;;;;;;;12.95;10.43;;;5.90;92.90;;;;;;5060034;28;20078;-72
2021/03/22 01:27:14;;;;;;;13.57;10.75;;;5.80;92.70;;;;;;5059835;28;20021;-72
2021/03/22 01:29:42;;;;;;;12.88;10.38;;;5.80;92.70;;;;;;5062869;28;20044;-72
2021/03/22 01:32:12;;;;;;;14.07;11.60;;;5.80;92.80;;;;;;5063428;28;20017;-72
2021/03/22 01:34:38;;;;;;;;;;;5.80;92.70;;;;;;5060726;28;20029;-72
2021/03/22 01:37:04;;;;;;;16.70;11.80;;;5.80;92.80;;;;;;5058395;28;20016;-72
2021/03/22 01:39:35;;;;;;;18.70;12.27;;;5.80;92.60;;;;;;5060578;28;20028;-72
2021/03/22 01:42:20;;;;;;;19.50;13.52;;;5.80;92.90;;;;;;5060052;28;20078;-72
2021/03/22 01:44:59;;;;;;;17.33;11.85;;;5.80;93.10;;;;;;5067866;28;20521;-72
2021/03/22 01:47:30;;;;;;;12.93;11.40;;;5.80;93.00;;;;;;5060149;28;20082;-72
2021/03/22 01:50:08;;;;;;;17.95;12.18;;;5.80;93.40;;;;;;5063025;28;20112;-72
2021/03/22 01:52:38;;;;;;;17.63;12.45;;;5.80;93.50;;;;;;5061199;28;20021;-72
2021/03/22 01:55:08;;;;;;;15.45;12.43;;;5.80;92.90;;;;;;5059658;28;20462;-72
2021/03/22 01:57:39;;;;;;;16.00;12.50;;;5.80;93.30;;;;;;5061140;28;20489;-72
2021/03/22 02:00:26;;;;;;;18.75;12.65;;;5.80;93.10;;;;;;5063380;28;20032;-72
2021/03/22 02:03:11;;;;;;;13.93;11.98;;;5.80;93.20;;;;;;5058176;28;20025;-72
2021/03/22 02:05:44;;;;;;;16.02;13.05;;;5.80;93.20;;;;;;5064364;28;20067;-72
2021/03/22 02:08:14;;;;;;;16.85;13.48;;;5.70;93.40;;;;;;5063324;28;20457;-72
2021/03/22 02:10:41;;;;;;;17.65;11.85;;;5.80;93.20;;;;;;5064847;28;20112;-72
2021/03/22 02:13:09;;;;;;;19.60;13.93;;;5.80;93.60;;;;;;5066567;28;20039;-72
2021/03/22 02:15:37;;;;;;;16.48;12.80;;;5.80;93.40;;;;;;5065236;28;20456;-72
2021/03/22 02:18:25;;;;;;;14.57;12.18;;;5.80;93.80;;;;;;5063160;28;20066;-72
2021/03/22 02:21:12;;;;;;;17.17;13.27;;;5.70;94.20;;;;;;5063213;28;20029;-72
2021/03/22 02:23:56;;;;;;;15.45;12.55;;;5.80;94.20;;;;;;5063873;28;20131;-72
2021/03/22 02:26:49;;;;;;;15.82;13.13;;;5.70;94.20;;;;;;5066462;28;20040;-72
2021/03/22 02:29:42;;;;;;;16.25;13.07;;;5.70;94.20;;;;;;5061034;28;20055;-72
2021/03/22 02:32:26;;;;;;;14.35;11.50;;;5.80;94.20;;;;;;5060059;28;20031;-72
2021/03/22 02:34:59;;;;;;;15.02;13.13;;;5.70;94.60;;;;;;5065126;28;20036;-72
2021/03/22 02:37:44;;;;;;;18.88;13.02;;;5.70;94.60;;;;;;5066487;28;20020;-72
2021/03/22 02:40:37;;;;;;;13.45;11.43;;;5.70;94.50;;;;;;5066744;28;20069;-72
2021/03/22 02:43:05;;;;;;;16.15;12.52;;;5.70;94.20;;;;;;5058860;28;20373;-72
2021/03/22 02:45:38;;;;;;;18.75;12.93;;;5.70;94.10;;;;;;5066047;28;20024;-72
2021/03/22 02:48:05;;;;;;;17.42;13.45;;;5.70;94.40;;;;;;5058520;28;20104;-72
2021/03/22 02:50:41;;;;;;;17.02;12.48;;;5.70;94.40;;;;;;5065966;28;20074;-72
2021/03/22 02:53:34;;;;;;;15.13;12.32;;;5.80;94.70;;;;;;5059090;28;20043;-72
2021/03/22 02:56:08;;;;;;;15.90;12.45;;;5.80;93.90;;;;;;5062405;28;20051;-72
2021/03/22 02:58:43;;;;;;;15.55;12.82;;;5.70;94.40;;;;;;5062425;28;20036;-72
2021/03/22 03:01:18;;;;;;;14.63;12.95;;;5.70;94.00;;;;;;5058924;28;20025;-72
2021/03/22 03:03:47;;;;;;;18.70;13.20;;;5.70;94.40;;;;;;5064401;28;20051;-72
2021/03/22 03:06:13;;;;;;;13.90;12.17;;;5.70;94.70;;;;;;5062506;28;20474;-72
2021/03/22 03:08:40;;;;;;;18.58;13.18;;;5.70;94.90;;;;;;5062041;28;20267;-72
2021/03/22 03:11:08;;;;;;;19.17;13.13;;;5.60;94.90;;;;;;5069916;28;20112;-72
2021/03/22 03:13:35;;;;;;;18.00;13.57;;;5.70;94.70;;;;;;5061692;28;20033;-72
2021/03/22 03:16:02;;;;;;;15.85;12.38;;;5.60;95.00;;;;;;5064762;28;20060;-72
2021/03/22 03:18:27;;;;;;;15.52;13.02;;;5.60;94.90;;;;;;5065027;28;20057;-72
2021/03/22 03:20:56;;;;;;;16.38;13.63;;;5.60;95.40;;;;;;5063463;28;20059;-72
2021/03/22 03:23:22;;;;;;;17.95;12.95;;;5.70;95.30;;;;;;5062069;28;20025;-72
2021/03/22 03:25:48;;;;;;;18.40;13.85;;;5.60;95.10;;;;;;5062174;28;20107;-72
2021/03/22 03:28:13;;;;;;;16.45;13.35;;;5.60;95.60;;;;;;5065481;28;20434;-72
2021/03/22 03:30:40;;;;;;;15.20;13.57;;;5.50;95.50;;;;;;5064868;28;20420;-72
2021/03/22 03:33:08;;;;;;;19.27;14.20;;;5.60;95.70;;;;;;5061433;28;20389;-72
2021/03/22 03:35:36;;;;;;;19.13;14.85;;;5.50;96.00;;;;;;5061562;28;20033;-72
2021/03/22 03:38:04;;;;;;;21.00;15.15;;;5.40;96.00;;;;;;5063565;28;20171;-72
2021/03/22 03:40:56;;;;;;;18.65;14.52;;;5.40;96.30;;;;;;5066762;28;20473;-72
2021/03/22 03:43:21;;;;;;;17.73;14.05;;;5.30;96.20;;;;;;5055688;28;20044;-72
2021/03/22 03:45:49;;;;;;;16.67;14.63;;;5.30;96.20;;;;;;5073098;28;20365;-72
2021/03/22 03:48:19;;;;;;;18.15;13.70;;;5.40;96.20;;;;;;5072501;28;20508;-72
2021/03/22 03:50:45;;;;;;;18.02;14.88;;;5.30;96.00;;;;;;5072625;28;20028;-72
2021/03/22 03:53:11;;;;;;;18.15;13.85;;;5.40;95.90;;;;;;5072201;28;20103;-72
2021/03/22 03:55:39;;;;;;;16.42;14.18;;;5.30;96.30;;;;;;5057470;28;20091;-72
2021/03/22 03:58:04;;;;;;;22.23;15.02;;;5.20;96.60;;;;;;5068715;28;20488;-72
2021/03/22 04:00:34;;;;;;;20.17;14.95;;;5.10;97.20;;;;;;5058273;28;20032;-72
2021/03/22 04:03:22;;;;;;;21.03;16.47;;;5.10;97.10;;;;;;5062780;28;20059;-72
2021/03/22 04:06:16;;;;;;;18.52;14.93;;;5.10;97.20;;;;;;5068551;28;20262;-72
2021/03/22 04:08:47;;;;;;;18.83;14.73;;;5.10;96.90;;;;;;5052670;28;20036;-72
2021/03/22 04:11:15;;;;;;;18.48;14.07;;;5.10;96.80;;;;;;5063585;28;20475;-72
2021/03/22 04:13:41;;;;;;;22.23;14.73;;;5.00;97.50;;;;;;5056697;28;20504;-72
2021/03/22 04:16:11;;;;;;;18.42;14.43;;;5.00;96.90;;;;;;5068149;28;20100;-72
2021/03/22 04:18:38;;;;;;;16.30;14.43;;;5.00;97.60;;;;;;5058507;28;20028;-72
2021/03/22 04:21:11;;;;;;;19.50;14.98;;;5.00;97.40;;;;;;5062063;28;20033;-72
2021/03/22 04:23:38;;;;;;;21.63;15.60;;;5.10;96.70;;;;;;5066678;28;20036;-72
2021/03/22 04:26:05;;;;;;;22.40;13.93;;;5.10;97.20;;;;;;5054262;28;20544;-72
2021/03/22 04:28:31;;;;;;;16.63;12.88;;;5.10;96.80;;;;;;5065405;28;20074;-72
2021/03/22 04:30:57;;;;;;;19.35;13.68;;;5.20;96.60;;;;;;5060621;28;20121;-72
2021/03/22 04:33:23;;;;;;;18.90;15.07;;;5.20;96.40;;;;;;5059392;28;20469;-72
2021/03/22 04:35:49;;;;;;;19.45;14.95;;;5.30;96.40;;;;;;5052242;28;20024;-72
2021/03/22 04:38:14;;;;;;;21.48;13.48;;;5.30;96.30;;;;;;5068341;28;20388;-72
2021/03/22 04:40:40;;;;;;;17.52;12.98;;;5.30;96.00;;;;;;5061279;28;20056;-72
2021/03/22 04:43:06;;;;;;;17.50;13.40;;;5.30;96.20;;;;;;5061983;28;20025;-72
2021/03/22 04:45:32;;;;;;;20.50;14.38;;;5.30;96.40;;;;;;5065216;28;20035;-72
2021/03/22 04:47:58;;;;;;;19.25;13.65;;;5.30;95.90;;;;;;5054808;28;20029;-72
2021/03/22 04:50:27;;;;;;;21.27;14.20;;;5.30;96.40;;;;;;5066377;28;20489;-72
2021/03/22 04:52:53;;;;;;;16.80;13.65;;;5.30;95.80;;;;;;5059797;28;20334;-72
2021/03/22 04:55:20;;;;;;;19.55;15.25;;;5.30;96.20;;;;;;5072016;28;20028;-72
2021/03/22 04:57:46;;;;;;;17.95;13.63;;;5.40;96.10;;;;;;5071955;28;20021;-72
2021/03/22 05:00:22;;;;;;;19.25;13.85;;;5.30;96.00;;;;;;5071443;28;20024;-72
2021/03/22 05:02:48;;;;;;;18.20;13.63;;;5.40;96.20;;;;;;5071883;28;20035;-72
2021/03/22 05:05:14;;;;;;;18.30;13.68;;;5.30;96.50;;;;;;5071490;28;20017;-72
2021/03/22 05:07:39;;;;;;;19.48;13.85;;;5.30;96.20;;;;;;5057336;28;20059;-72
2021/03/22 05:10:08;;;;;;;15.93;13.45;;;5.30;96.10;;;;;;5067740;28;20020;-72
2021/03/22 05:12:34;;;;;;;16.73;13.63;;;5.30;96.00;;;;;;5051754;28;20103;-72
2021/03/22 05:15:00;;;;;;;19.25;13.90;;;5.30;96.00;;;;;;5051494;28;20048;-72
2021/03/22 05:17:26;;;;;;;20.73;14.32;;;5.30;95.80;;;;;;5052067;28;20063;-72
2021/03/22 05:19:52;;;;;;;20.15;13.02;;;5.30;96.00;;;;;;5067875;28;20518;-72
2021/03/22 05:22:18;;;;;;;21.02;14.07;;;5.30;95.70;;;;;;5059885;28;20096;-72
2021/03/22 05:24:43;;;;;;;19.17;14.00;;;5.30;96.20;;;;;;5072188;28;20116;-72
2021/03/22 05:27:10;;;;;;;16.08;12.63;;;5.30;95.90;;;;;;5072367;28;20024;-72
2021/03/22 05:29:35;;;;;;;19.60;13.75;;;5.30;95.80;;;;;;5071045;28;20056;-72
2021/03/22 05:32:02;;;;;;;18.90;14.73;;;5.30;96.40;;;;;;5071513;28;20032;-72
2021/03/22 05:34:28;;;;;;;18.95;14.07;;;5.30;96.60;;;;;;5071260;28;20012;-72
2021/03/22 05:36:54;;;;;;;19.55;14.07;;;5.30;96.90;;;;;;5073641;28;20429;-72
2021/03/22 05:39:20;;;;;;;21.73;14.75;;;5.30;97.10;;;;;;5076227;28;20136;-72
2021/03/22 05:42:15;;;;;;;17.92;14.13;;;5.30;96.90;;;;;;5075270;28;20033;-72
2021/03/22 05:44:49;;;;;;;17.02;12.77;;;5.30;97.20;;;;;;5065615;28;20040;-72
2021/03/22 05:47:46;;;;;;;21.00;14.55;;;5.30;97.00;;;;;;5063023;28;20111;-73
2021/03/22 05:50:32;;;;;;;18.60;14.20;;;5.30;97.20;;;;;;5073100;28;20562;-72
2021/03/22 05:53:15;;;;;;;20.42;14.90;;;5.30;97.00;;;;;;5075255;28;20024;-72
2021/03/22 05:55:53;;;;;;;20.25;14.18;;;5.30;97.10;;;;;;5074687;28;20086;-72
2021/03/22 05:58:18;;;;;;;17.23;13.52;;;5.30;97.80;;;;;;5057844;28;20021;-72
2021/03/22 06:01:00;;;;;;;19.92;14.68;;;5.30;97.90;;;;;;5058924;28;20066;-72
2021/03/22 06:03:50;;;;;;;20.35;13.82;;;5.30;97.80;;;;;;5062827;28;20392;-73
2021/03/22 06:06:18;;;;;;;17.00;13.73;;;5.30;97.90;;;;;;5071125;28;20029;-72
2021/03/22 06:09:07;;;;;;;20.98;14.48;;;5.20;97.90;;;;;;5075830;28;20067;-73
2021/03/22 06:11:32;;;;;;;21.63;14.13;;;5.20;98.10;;;;;;5072996;28;20044;-72
2021/03/22 06:14:10;;;;;;;18.52;13.23;;;5.30;97.80;;;;;;5067259;28;20025;-72
2021/03/22 06:16:38;;;;;;;17.48;13.77;;;5.30;97.90;;;;;;5067676;28;20089;-72
2021/03/22 06:19:08;;;;;;;17.00;13.18;;;5.30;97.70;;;;;;5073045;28;20511;-72
2021/03/22 06:21:37;;;;;;;18.88;13.43;;;5.30;97.30;;;;;;5072329;28;20493;-72
2021/03/22 06:24:19;;;;;;;19.27;13.25;;;5.40;97.30;;;;;;5064559;28;20456;-72
2021/03/22 06:26:48;;;;;;;19.08;13.18;;;5.40;97.20;;;;;;5055196;28;20025;-72
2021/03/22 06:29:17;;;;;;;18.38;13.35;;;5.50;96.90;;;;;;5073453;28;20076;-72
2021/03/22 06:31:44;;;;;;;19.10;13.18;;;5.50;96.80;;;;;;5076498;28;20043;-72
2021/03/22 06:34:13;;;;;;;20.00;14.57;;;5.50;96.50;;;;;;5072240;28;20013;-72
2021/03/22 06:36:39;;;;;;;20.50;13.73;;;5.50;96.50;;;;;;5056502;28;20021;-72
2021/03/22 06:39:07;;;;;;;21.98;14.75;;;5.60;96.10;;;;;;5087593;28;20427;-72
2021/03/22 06:41:36;;;;;;;21.00;14.20;;;5.60;96.30;;;;;;5063854;28;20546;-72
2021/03/22 06:44:11;;;;;;;21.88;15.13;;;5.60;96.20;;;;;;5069886;28;20032;-72
2021/03/22 06:47:12;;;;;;;16.17;13.23;;;5.60;96.30;;;;;;5074723;28;20023;-72
2021/03/22 06:49:44;;;;;;;18.63;13.68;;;5.70;95.70;;;;;;5074273;28;20047;-72
2021/03/22 06:52:25;;;;;;;18.40;14.07;;;5.80;95.70;;;;;;5061984;28;20040;-72
2021/03/22 06:54:56;;;;;;;17.27;12.63;;;5.80;95.60;;;;;;5061434;28;20556;-75
2021/03/22 06:57:27;;;;;;;17.35;13.38;;;5.80;95.60;;;;;;5071951;28;20025;-71
2021/03/22 07:00:11;;;;;;;18.50;13.88;;;5.90;95.80;;;;;;5074944;28;20078;-72
2021/03/22 07:02:44;;;;;;;17.48;13.68;;;5.90;95.80;;;;;;5074602;28;20138;-72
2021/03/22 07:05:28;;;;;;;15.43;11.95;;;6.00;95.30;;;;;;5074397;28;20032;-72
2021/03/22 07:08:09;;;;;;;15.85;12.27;;;6.00;94.80;;;;;;5074341;28;20108;-72
2021/03/22 07:10:43;;;;;;;18.33;13.90;;;6.10;95.20;;;;;;5073888;28;20430;-72
2021/03/22 07:13:28;;;;;;;19.42;13.75;;;6.10;95.40;;;;;;5073891;28;20032;-73
2021/03/22 07:15:56;;;;;;;18.27;13.85;;;6.20;95.40;;;;;;5074357;28;20107;-72
2021/03/22 07:18:25;;;;;;;20.35;13.75;;;6.20;95.50;;;;;;5073876;28;20025;-72
2021/03/22 07:21:03;;;;;;;18.50;13.40;;;6.20;95.40;;;;;;5073983;28;20032;-72
2021/03/22 07:23:39;;;;;;;17.77;13.23;;;6.30;95.00;;;;;;5073587;28;20427;-72
2021/03/22 07:26:23;;;;;;;19.02;13.27;;;6.50;94.50;;;;;;5073664;28;20040;-72
2021/03/22 07:29:26;;;;;;;15.15;12.85;;;6.80;94.10;;;;;;5073764;28;20051;-72
2021/03/22 07:32:05;;;;;;;18.63;13.15;;;6.90;93.90;;;;;;5073586;28;20120;-72
2021/03/22 07:34:42;;;;;;;14.40;11.35;;;7.10;92.80;;;;;;5073519;28;20040;-72
2021/03/22 07:37:08;;;;;;;19.40;12.75;;;7.20;92.70;;;;;;5073580;28;20435;-72
2021/03/22 07:39:46;;;;;;;18.02;13.80;;;7.10;92.50;;;;;;5073099;28;20078;-72
2021/03/22 07:42:15;;;;;;;16.63;12.52;;;7.20;92.60;;;;;;5073673;28;20035;-72
2021/03/22 07:45:07;;;;;;;15.32;12.15;;;7.30;92.50;;;;;;5073187;28;20044;-72
2021/03/22 07:47:46;;;;;;;14.88;11.90;;;7.40;91.70;;;;;;5073392;28;20103;-72
2021/03/22 07:50:22;;;;;;;17.30;12.13;;;7.60;91.40;;;;;;5073453;28;20024;-72
2021/03/22 07:52:55;;;;;;;15.82;12.23;;;7.50;91.10;;;;;;5072820;28;20024;-72
2021/03/22 07:55:27;;;;;;;14.57;12.07;;;7.50;91.00;;;;;;5073101;28;20025;-72
2021/03/22 07:58:17;;;;;;;16.83;13.32;;;7.50;91.20;;;;;;5073257;28;20423;-72
2021/03/22 08:01:02;;;;;;;13.73;11.65;;;7.70;91.30;;;;;;5072883;28;20028;-72
2021/03/22 08:03:39;;;;;;;13.75;11.63;;;7.80;90.50;;;;;;5073082;28;20108;-72
2021/03/22 08:06:12;;;;;;;16.40;11.63;;;8.10;90.20;;;;;;5073068;28;20362;-72
2021/03/22 08:09:03;;;;;;;16.10;12.60;;;8.20;89.70;;;;;;5072611;28;20025;-72
2021/03/22 08:11:45;;;;;;;14.75;11.38;;;8.20;90.00;;;;;;5071658;28;20024;-72
2021/03/22 08:14:33;;;;;;;13.02;10.82;;;7.90;89.50;;;;;;5073156;28;20036;-72
2021/03/22 08:17:07;;;;;;;15.35;11.55;;;7.80;89.70;;;;;;5072774;28;20032;-72
2021/03/22 08:19:55;;;;;;;20.20;10.75;;;8.10;88.10;;;;;;5072736;28;20039;-72
2021/03/22 08:22:54;;;;;;;14.35;11.43;;;8.10;87.20;;;;;;5072515;28;20437;-72
2021/03/22 08:25:27;;;;;;;14.02;10.98;;;8.00;86.90;;;;;;5072635;28;20082;-72
2021/03/22 08:27:56;;;;;;;12.27;10.77;;;7.80;87.80;;;;;;5072708;28;20438;-72
2021/03/22 08:30:46;;;;;;;13.88;10.95;;;8.20;87.10;;;;;;5072584;28;20122;-72
2021/03/22 08:33:44;;;;;;;16.63;11.13;;;8.40;84.90;;;;;;5072503;28;20481;-72
2021/03/22 08:36:21;;;;;;;16.27;12.02;;;8.10;86.70;;;;;;5072346;28;20111;-72
2021/03/22 08:38:55;;;;;;;14.35;10.77;;;8.10;86.60;;;;;;5072738;28;20016;-72
2021/03/22 08:41:26;;;;;;;15.75;12.27;;;7.90;87.30;;;;;;5072691;28;20070;-72
2021/03/22 08:44:02;;;;;;;14.10;11.40;;;8.10;85.40;;;;;;5072516;28;20112;-72
2021/03/22 08:46:48;;;;;;;13.52;10.73;;;9.40;78.70;;;;;;5072396;28;20532;-72
2021/03/22 08:49:43;;;;;;;17.35;12.45;;;9.10;82.00;;;;;;5072430;28;20051;-72
2021/03/22 08:52:38;;;;;;;14.73;11.85;;;9.50;78.60;;;;;;5061233;28;20507;-72
2021/03/22 08:55:07;;;;;;;24.02;12.02;;;10.10;75.50;;;;;;5072515;28;20070;-72
2021/03/22 08:57:44;;;;;;;13.65;12.18;;;12.20;73.00;;;;;;5072296;28;20035;-72
2021/03/22 09:00:28;;;;;;;15.18;12.25;;;14.70;64.10;;;;;;5072333;28;20480;-72
2021/03/22 09:03:04;;;;;;;13.40;11.13;;;15.60;60.60;;;;;;5072476;28;20111;-72
2021/03/22 09:05:32;;;;;;;14.57;11.02;;;16.30;57.20;;;;;;5071995;28;20024;-72
2021/03/22 09:08:21;;;;;;;13.30;11.75;;;15.50;55.90;;;;;;5072301;28;20032;-72
2021/03/22 09:10:50;;;;;;;12.68;11.32;;;16.30;57.20;;;;;;5072002;28;20024;-72
2021/03/22 09:13:29;;;;;;;16.20;10.90;;;15.50;55.90;;;;;;5075888;28;20380;-72
2021/03/22 09:16:24;;;;;;;12.07;10.50;;;12.60;62.20;;;;;;5076371;28;20020;-72
2021/03/22 09:19:14;;;;;;;14.23;11.50;;;12.40;62.30;;;;;;5068959;28;20025;-72
2021/03/22 09:21:54;;;;;;;12.55;11.23;;;14.70;60.90;;;;;;5076080;28;20035;-72
2021/03/22 09:24:38;;;;;;;14.10;11.85;;;13.50;60.30;;;;;;5076402;28;20380;-72
2021/03/22 09:27:24;;;;;;;13.80;11.23;;;12.80;60.60;;;;;;5076085;28;20032;-72
2021/03/22 09:30:02;;;;;;;13.52;11.65;;;12.00;63.40;;;;;;5075984;28;20114;-72
2021/03/22 09:32:35;;;;;;;15.35;11.25;;;10.50;66.30;;;;;;5076190;28;20457;-72
2021/03/22 09:35:16;;;;;;;13.27;10.27;;;11.30;64.00;;;;;;5075701;28;20029;-72
2021/03/22 09:37:54;;;;;;;11.50;9.52;;;10.70;64.40;;;;;;5075884;28;20030;-72
2021/03/22 09:40:23;;;;;;;12.95;10.02;;;9.70;66.60;;;;;;5076089;28;20074;-72
2021/03/22 09:43:07;;;;;;;11.93;9.63;;;11.40;63.40;;;;;;5074587;28;20408;-72
2021/03/22 09:45:57;;;;;;;11.35;10.05;;;13.40;59.80;;;;;;5075788;28;20029;-72
2021/03/22 09:48:38;;;;;;;13.60;10.60;;;15.50;54.30;;;;;;5075613;28;20056;-72
2021/03/22 09:51:04;;;;;;;10.80;9.68;;;19.40;49.70;;;;;;5075833;28;20062;-72
2021/03/22 09:53:41;;;;;;;12.05;9.63;;;14.70;56.10;;;;;;5075722;28;20385;-72
2021/03/22 09:56:28;;;;;;;11.18;9.95;;;15.70;51.50;;;;;;5075764;28;20024;-72
2021/03/22 09:59:23;;;;;;;15.52;10.35;;;15.90;50.50;;;;;;5075492;28;20028;-73
2021/03/22 10:01:51;;;;;;;10.85;9.75;;;18.50;48.50;;;;;;5074072;28;20457;-73
2021/03/22 10:04:21;;;;;;;10.80;9.57;;;17.50;48.60;;;;;;5075334;28;20487;-73
2021/03/22 10:06:50;;;;;;;9.98;8.90;;;15.20;49.30;;;;;;5075284;28;20028;-73
2021/03/22 10:09:25;;;;;;;9.93;8.90;;;17.50;49.40;;;;;;5075495;28;20112;-73
2021/03/22 10:11:53;;;;;;;10.73;8.25;;;15.50;50.60;;;;;;5075122;28;20056;-73
2021/03/22 10:14:36;;;;;;;10.25;9.25;;;16.70;47.70;;;;;;5075403;28;20033;-73
2021/03/22 10:17:02;;;;;;;9.13;8.13;;;18.90;45.30;;;;;;5075057;28;20035;-73
2021/03/22 10:19:32;;;;;;;9.02;8.23;;;18.20;46.20;;;;;;5075200;28;20024;-74
2021/03/22 10:22:02;;;;;;;10.27;9.17;;;18.90;42.80;;;;;;5075119;28;20056;-73
2021/03/22 10:24:55;;;;;;;8.90;8.00;;;17.80;44.70;;;;;;5075159;28;20028;-73
2021/03/22 10:27:33;;;;;;;9.25;8.38;;;17.60;44.30;;;;;;5013047;28;20084;-73
2021/03/22 10:30:12;;;;;;;10.52;8.27;;;18.60;45.10;;;;;;5012761;28;20038;-73
2021/03/22 10:32:48;;;;;;;11.55;9.00;;;20.40;44.80;;;;;;5012704;28;20399;-74
2021/03/22 10:35:17;;;;;;;9.60;8.65;;;22.20;41.50;;;;;;5013124;28;20502;-73
2021/03/22 10:37:50;;;;;;;10.70;9.65;;;19.50;38.40;;;;;;5012903;28;20049;-74
2021/03/22 10:40:38;;;;;;;10.82;8.32;;;20.60;43.00;;;;;;5013048;28;20041;-74
2021/03/22 10:43:06;;;;;;;9.32;8.40;;;17.60;44.10;;;;;;5013039;28;20103;-73
2021/03/22 10:45:42;;;;;;;9.63;8.52;;;17.60;44.40;;;;;;5013051;28;20049;-73
2021/03/22 10:48:30;;;;;;;9.38;7.97;;;16.70;47.50;;;;;;5012596;28;20046;-73
2021/03/22 10:51:05;;;;;;;7.82;7.07;;;15.80;46.80;;;;;;5012729;28;20678;-73
2021/03/22 10:53:32;;;;;;;9.38;8.50;;;17.60;42.10;;;;;;5012711;28;20065;-73
2021/03/22 10:56:24;;;;;;;8.68;7.97;;;18.20;40.80;;;;;;5012518;28;20061;-73
2021/03/22 10:58:51;;;;;;;9.73;8.02;;;19.40;41.70;;;;;;5012527;28;20034;-73
2021/03/22 11:01:19;;;;;;;8.52;7.70;;;20.90;38.30;;;;;;5012291;28;20057;-73
2021/03/22 11:03:48;;;;;;;8.85;7.95;;;22.80;35.70;;;;;;5028660;28;20064;-73
2021/03/22 11:06:28;;;;;;;8.87;8.07;;;25.80;33.00;;;;;;5074506;28;20031;-73
2021/03/22 11:08:58;;;;;;;7.90;7.10;;;24.60;30.90;;;;;;5074225;28;20278;-74
2021/03/22 11:11:24;;;;;;;7.68;6.95;;;25.00;32.80;;;;;;5074281;28;20036;-74
2021/03/22 11:13:52;;;;;;;9.68;8.68;;;23.10;33.30;;;;;;5073907;28;20024;-74
2021/03/22 11:16:23;;;;;;;7.60;6.85;;;22.30;36.70;;;;;;5073804;28;20101;-74
2021/03/22 11:18:50;;;;;;;8.73;7.82;;;18.40;38.50;;;;;;5074089;28;20028;-74
2021/03/22 11:21:21;;;;;;;8.93;7.68;;;19.70;38.50;;;;;;5074156;28;20048;-73
2021/03/22 11:23:49;;;;;;;8.07;7.32;;;22.50;32.70;;;;;;5073713;28;20071;-74
2021/03/22 11:26:25;;;;;;;8.15;7.45;;;21.30;34.90;;;;;;5073932;28;20032;-74
2021/03/22 11:29:18;;;;;;;8.52;7.70;;;23.40;35.20;;;;;;5073579;28;20527;-74
2021/03/22 11:31:46;;;;;;;9.32;7.90;;;25.40;30.00;;;;;;5073263;28;20036;-74
2021/03/22 11:34:27;;;;;;;8.35;7.55;;;26.60;29.30;;;;;;5073333;28;20028;-74
2021/03/22 11:37:08;;;;;;;11.82;8.45;;;26.20;30.30;;;;;;5073373;28;20070;-74
2021/03/22 11:39:35;;;;;;;9.68;8.77;;;24.50;29.40;;;;;;5073987;28;20029;-74
2021/03/22 11:42:26;;;;;;;16.80;8.88;;;25.90;31.10;;;;;;5073451;28;20439;-74
2021/03/22 11:44:53;;;;;;;8.07;6.78;;;27.50;32.10;;;;;;5072569;28;20079;-74
2021/03/22 11:47:39;;;;;;;7.22;6.53;;;26.50;28.00;;;;;;5073591;28;20078;-74
2021/03/22 11:50:34;;;;;;;7.85;7.03;;;24.20;29.70;;;;;;5073414;28;20086;-74
2021/03/22 11:53:10;;;;;;;9.50;8.68;;;25.80;28.40;;;;;;5073189;28;20051;-74
2021/03/22 11:55:51;;;;;;;8.60;7.78;;;24.90;28.60;;;;;;5073376;28;20039;-74
2021/03/22 11:58:28;;;;;;;9.30;8.50;;;26.60;28.60;;;;;;5073430;28;20035;-74
2021/03/22 12:00:55;;;;;;;9.30;8.45;;;27.10;27.40;;;;;;5072950;28;20050;-74
2021/03/22 12:03:31;;;;;;;8.57;7.82;;;25.90;30.20;;;;;;5073059;28;20021;-74
2021/03/22 12:06:12;;;;;;;13.45;9.00;;;27.50;28.60;;;;;;5072940;28;20033;-74
2021/03/22 12:08:39;;;;;;;8.57;7.63;;;27.50;28.90;;;;;;5073253;28;20052;-74
2021/03/22 12:11:28;;;;;;;8.40;7.53;;;28.00;27.90;;;;;;5072927;28;20025;-74
2021/03/22 12:13:59;;;;;;;7.72;7.03;;;29.00;27.30;;;;;;5072007;28;20086;-74
2021/03/22 12:16:31;;;;;;;8.88;8.07;;;29.50;27.00;;;;;;5072849;28;20032;-74
2021/03/22 12:18:59;;;;;;;9.18;8.32;;;27.40;27.70;;;;;;5072898;28;20181;-74
2021/03/22 12:21:25;;;;;;;19.73;8.43;;;27.20;28.00;;;;;;5072971;28;20058;-74
2021/03/22 12:23:50;;;;;;;9.18;8.38;;;27.90;29.40;;;;;;5072718;28;20031;-74
2021/03/22 12:26:18;;;;;;;10.15;7.25;;;28.00;28.30;;;;;;5072758;28;20029;-74
2021/03/22 12:29:00;;;;;;;7.88;7.28;;;28.10;27.70;;;;;;5072473;28;20070;-74
2021/03/22 12:31:33;;;;;;;9.45;8.27;;;28.30;29.20;;;;;;5072751;28;20025;-74
2021/03/22 12:34:02;;;;;;;9.77;8.77;;;25.60;28.40;;;;;;5072713;28;20028;-75
2021/03/22 12:36:29;;;;;;;34.33;10.65;;;23.50;32.10;;;;;;5072732;28;20029;-74
2021/03/22 12:38:54;;;;;;;9.55;8.75;;;24.80;31.80;;;;;;5072514;28;20500;-74
2021/03/22 12:41:26;;;;;;;8.88;7.97;;;23.20;33.10;;;;;;5072680;28;20029;-74
2021/03/22 12:43:51;;;;;;;8.82;8.02;;;23.20;31.30;;;;;;5072232;28;20038;-74
2021/03/22 12:46:17;;;;;;;9.13;8.32;;;26.40;29.40;;;;;;5071788;28;20439;-74
2021/03/22 12:48:43;;;;;;;11.27;8.50;;;27.50;28.80;;;;;;5072565;28;20429;-74
2021/03/22 12:51:09;;;;;;;8.75;7.88;;;27.90;29.00;;;;;;5072367;28;20025;-74
2021/03/22 12:53:34;;;;;;;8.60;7.90;;;27.40;29.10;;;;;;5072554;28;20033;-74
2021/03/22 12:56:00;;;;;;;8.38;7.57;;;26.40;28.00;;;;;;5072356;28;20028;-74
2021/03/22 12:58:27;;;;;;;9.73;8.82;;;27.20;28.90;;;;;;5072284;28;20055;-74
2021/03/22 13:00:55;;;;;;;8.32;7.63;;;25.50;28.20;;;;;;5072396;28;20511;-74
2021/03/22 13:03:23;;;;;;;7.75;7.05;;;26.60;30.00;;;;;;5072348;28;20045;-74
2021/03/22 13:05:54;;;;;;;9.55;8.70;;;26.40;28.70;;;;;;5072317;28;20492;-74
2021/03/22 13:08:21;;;;;;;8.63;7.93;;;25.90;29.10;;;;;;5072387;28;20031;-74
2021/03/22 13:10:47;;;;;;;9.10;7.97;;;26.30;29.30;;;;;;5072405;28;20025;-74